| time (UTC) | temp F | wind direction | speed MPH | gust MPH | rain 1hr in | rain 24hr in | rain mn in | humidity % | barometer mb |
| 20260904174542 | 88 | 119 | 8.0 | 14.0 | 0.00 | 0.00 | 0.00 | 60 | 1015.3 |
| 20260904173045 | 89 | 122 | 9.0 | 13.0 | 0.00 | 0.00 | 0.00 | 57 | 1015.4 |
| 20260904171546 | 88 | 147 | 6.0 | 12.0 | 0.00 | 0.00 | 0.00 | 59 | 1015.5 |
| 20260904170043 | 87 | 158 | 5.0 | 13.0 | 0.00 | 0.00 | 0.00 | 62 | 1015.6 |
| 20260904164542 | 86 | 142 | 6.0 | 14.0 | 0.00 | 0.00 | 0.00 | 64 | 1015.7 |
| 20260904163054 | 85 | 151 | 7.0 | 12.0 | 0.00 | 0.00 | 0.00 | 64 | 1015.8 |
| 20260904161536 | 84 | 158 | 8.0 | 17.0 | 0.00 | 0.00 | 0.00 | 67 | 1016.0 |
| 20260904160044 | 83 | 155 | 8.0 | 12.0 | 0.00 | 0.00 | 0.00 | 69 | 1016.0 |
| 20260904154542 | 83 | 136 | 10.0 | 16.0 | 0.00 | 0.00 | 0.00 | 70 | 1016.0 |
| 20260904153048 | 82 | 140 | 8.0 | 14.0 | 0.00 | 0.00 | 0.00 | 72 | 1015.9 |
| 20260904151540 | 81 | 117 | 8.0 | 14.0 | 0.00 | 0.00 | 0.00 | 74 | 1015.7 |
| 20260904150045 | 80 | 148 | 9.0 | 15.0 | 0.00 | 0.00 | 0.00 | 76 | 1015.9 |
| 20260904144539 | 79 | 124 | 10.0 | 15.0 | 0.00 | 0.00 | 0.00 | 77 | 1015.9 |
| 20260904143038 | 80 | 137 | 11.0 | 16.0 | 0.00 | 0.00 | 0.00 | 77 | 1015.7 |
| 20260904141600 | 77 | 113 | 7.0 | 11.0 | 0.00 | 0.00 | 0.00 | 81 | 1015.5 |
| 20260904140040 | 76 | 120 | 8.0 | 11.0 | 0.00 | 0.00 | 0.00 | 82 | 1015.6 |
| 20260904134541 | 76 | 84 | 4.0 | 7.0 | 0.00 | 0.00 | 0.00 | 83 | 1015.5 |
| 20260904133044 | 75 | 126 | 3.0 | 6.0 | 0.00 | 0.00 | 0.00 | 84 | 1015.0 |
| 20260904131603 | 74 | 174 | 2.0 | 3.0 | 0.00 | 0.00 | 0.00 | 86 | 1014.7 |
| 20260904130042 | 73 | 97 | 1.0 | 2.0 | 0.00 | 0.00 | 0.00 | 87 | 1014.7 |
| 20260904124545 | 72 | 124 | 0.0 | 1.0 | 0.00 | 0.00 | 0.00 | 86 | 1014.1 |
| 20260904123102 | 72 | 148 | 0.0 | 1.0 | 0.00 | 0.00 | 0.00 | 86 | 1014.0 |
| 20260904121540 | 73 | 147 | 1.0 | 2.0 | 0.00 | 0.00 | 0.00 | 84 | 1013.9 |
| 20260904120041 | 73 | 0 | 0.0 | 3.0 | 0.00 | 0.00 | 0.00 | 83 | 1013.8 |
| 20260904114546 | 73 | 207 | 1.0 | 4.0 | 0.00 | 0.00 | 0.00 | 82 | 1013.6 |
| 20260904113044 | 74 | 164 | 1.0 | 5.0 | 0.00 | 0.00 | 0.00 | 80 | 1013.6 |
| 20260904111551 | 74 | 219 | 1.0 | 3.0 | 0.00 | 0.00 | 0.00 | 80 | 1013.5 |
| 20260904110045 | 74 | 0 | 0.0 | 2.0 | 0.00 | 0.00 | 0.00 | 79 | 1013.6 |
| 20260904104538 | 74 | 159 | 0.0 | 2.0 | 0.00 | 0.00 | 0.00 | 77 | 1013.6 |
| 20260904103044 | 75 | 156 | 2.0 | 5.0 | 0.00 | 0.00 | 0.00 | 76 | 1013.5 |
| 20260904101546 | 75 | 210 | 2.0 | 6.0 | 0.00 | 0.00 | 0.00 | 75 | 1013.4 |
| 20260904100042 | 76 | 204 | 3.0 | 7.0 | 0.00 | 0.00 | 0.00 | 74 | 1013.3 |
| 20260904094543 | 76 | 153 | 3.0 | 6.0 | 0.00 | 0.00 | 0.00 | 74 | 1013.1 |
| 20260904093044 | 76 | 215 | 2.0 | 6.0 | 0.00 | 0.00 | 0.00 | 73 | 1013.1 |
| 20260904091540 | 76 | 128 | 1.0 | 4.0 | 0.00 | 0.00 | 0.00 | 73 | 1013.0 |
| 20260904090042 | 77 | 196 | 1.0 | 2.0 | 0.00 | 0.00 | 0.00 | 72 | 1013.1 |
| 20260904084544 | 77 | 181 | 1.0 | 7.0 | 0.00 | 0.00 | 0.00 | 72 | 1013.3 |
| 20260904083052 | 78 | 186 | 3.0 | 6.0 | 0.00 | 0.00 | 0.00 | 71 | 1013.3 |
| 20260904081544 | 78 | 205 | 4.0 | 7.0 | 0.00 | 0.00 | 0.00 | 70 | 1013.3 |
| 20260904080044 | 78 | 193 | 2.0 | 7.0 | 0.00 | 0.00 | 0.00 | 69 | 1013.3 |
| 20260904074553 | 79 | 165 | 3.0 | 7.0 | 0.00 | 0.00 | 0.00 | 67 | 1013.3 |
| 20260904073041 | 79 | 141 | 5.0 | 11.0 | 0.00 | 0.00 | 0.00 | 66 | 1013.5 |
| 20260904071542 | 80 | 132 | 6.0 | 12.0 | 0.00 | 0.00 | 0.00 | 66 | 1013.5 |
| 20260904070043 | 80 | 161 | 5.0 | 9.0 | 0.00 | 0.00 | 0.00 | 66 | 1013.5 |
| 20260904064543 | 80 | 165 | 5.0 | 9.0 | 0.00 | 0.00 | 0.00 | 66 | 1013.3 |
| 20260904063054 | 80 | 149 | 4.0 | 10.0 | 0.00 | 0.00 | 0.00 | 65 | 1013.3 |
| 20260904061543 | 81 | 176 | 6.0 | 13.0 | 0.00 | 0.00 | 0.00 | 64 | 1013.1 |
| 20260904060106 | 81 | 178 | 8.0 | 12.0 | 0.00 | 0.00 | 0.00 | 64 | 1013.1 |
| 20260904054539 | 82 | 137 | 7.0 | 13.0 | 0.00 | 0.00 | 0.00 | 63 | 1013.2 |
| 20260904053042 | 82 | 180 | 7.0 | 16.0 | 0.00 | 0.00 | 0.00 | 63 | 1013.0 |
| 20260904051539 | 82 | 140 | 8.0 | 15.0 | 0.00 | 0.00 | 0.00 | 63 | 1012.9 |
| 20260904050042 | 83 | 136 | 8.0 | 17.0 | 0.00 | 0.00 | 0.00 | 62 | 1012.9 |
| 20260904044547 | 83 | 143 | 10.0 | 15.0 | 0.00 | 0.00 | 0.00 | 61 | 1012.8 |
| 20260904043044 | 84 | 181 | 11.0 | 16.0 | 0.00 | 0.00 | 0.00 | 60 | 1012.8 |
| 20260904041542 | 84 | 150 | 11.0 | 18.0 | 0.00 | 0.00 | 0.00 | 59 | 1012.9 |
| 20260904040040 | 84 | 162 | 8.0 | 15.0 | 0.00 | 0.00 | 0.00 | 58 | 1013.0 |
| 20260904034555 | 85 | 132 | 8.0 | 15.0 | 0.00 | 0.00 | 0.00 | 57 | 1013.1 |
| 20260904033042 | 85 | 129 | 4.0 | 7.0 | 0.00 | 0.00 | 0.00 | 57 | 1013.0 |
| 20260904031539 | 86 | 115 | 4.0 | 10.0 | 0.00 | 0.00 | 0.00 | 55 | 1012.7 |
| 20260904030040 | 87 | 122 | 8.0 | 13.0 | 0.00 | 0.00 | 0.00 | 53 | 1012.5 |
| 20260904024541 | 86 | 144 | 4.0 | 12.0 | 0.00 | 0.00 | 0.00 | 52 | 1012.3 |
| 20260904023043 | 86 | 122 | 6.0 | 10.0 | 0.00 | 0.00 | 0.00 | 52 | 1012.0 |
| 20260904021547 | 87 | 145 | 2.0 | 4.0 | 0.00 | 0.00 | 0.00 | 50 | 1011.8 |
| 20260904020045 | 89 | 172 | 3.0 | 6.0 | 0.00 | 0.00 | 0.00 | 47 | 1011.4 |
| 20260904014546 | 89 | 160 | 2.0 | 7.0 | 0.00 | 0.00 | 0.00 | 44 | 1011.3 |
| 20260904013042 | 90 | 195 | 5.0 | 9.0 | 0.00 | 0.00 | 0.00 | 44 | 1011.1 |
| 20260904011544 | 91 | 108 | 7.0 | 10.0 | 0.00 | 0.00 | 0.00 | 42 | 1010.8 |
| 20260904010050 | 91 | 107 | 7.0 | 11.0 | 0.00 | 0.00 | 0.00 | 42 | 1010.7 |
| 20260904004557 | 91 | 110 | 6.0 | 11.0 | 0.00 | 0.00 | 0.00 | 42 | 1010.5 |
| 20260904003045 | 93 | 105 | 3.0 | 5.0 | 0.00 | 0.00 | 0.00 | 41 | 1010.4 |
| 20260904001543 | 94 | 118 | 3.0 | 6.0 | 0.00 | 0.00 | 0.00 | 39 | 1010.5 |
| 20260904000053 | 95 | 123 | 3.0 | 5.0 | 0.00 | 0.00 | 0.00 | 37 | 1010.4 |
| 20260903234546 | 98 | 142 | 5.0 | 9.0 | 0.00 | 0.00 | 0.00 | 33 | 1010.3 |
| 20260903233042 | 99 | 126 | 6.0 | 12.0 | 0.00 | 0.00 | 0.00 | 33 | 1010.3 |
| 20260903231539 | 99 | 128 | 7.0 | 11.0 | 0.00 | 0.00 | 0.00 | 33 | 1010.2 |
| 20260903230036 | 99 | 141 | 6.0 | 13.0 | 0.00 | 0.00 | 0.00 | 33 | 1010.1 |
| 20260903224543 | 101 | 115 | 5.0 | 11.0 | 0.00 | 0.00 | 0.00 | 31 | 1010.0 |
| 20260903223043 | 102 | 141 | 5.0 | 15.0 | 0.00 | 0.00 | 0.00 | 31 | 1010.1 |
| 20260903221538 | 101 | 82 | 7.0 | 15.0 | 0.00 | 0.00 | 0.00 | 30 | 1010.2 |
| 20260903220045 | 102 | 162 | 4.0 | 12.0 | 0.00 | 0.00 | 0.00 | 31 | 1010.2 |
| 20260903214543 | 100 | 103 | 6.0 | 11.0 | 0.00 | 0.00 | 0.00 | 32 | 1010.3 |
| 20260903213041 | 101 | 120 | 8.0 | 14.0 | 0.00 | 0.00 | 0.00 | 32 | 1010.4 |
| 20260903211611 | 101 | 100 | 6.0 | 10.0 | 0.00 | 0.00 | 0.00 | 32 | 1010.5 |
| 20260903210040 | 100 | 96 | 3.0 | 6.0 | 0.00 | 0.00 | 0.00 | 30 | 1010.7 |
| 20260903204540 | 100 | 235 | 1.0 | 7.0 | 0.00 | 0.00 | 0.00 | 31 | 1010.9 |
| 20260903203044 | 101 | 137 | 6.0 | 10.0 | 0.00 | 0.00 | 0.00 | 30 | 1011.2 |
| 20260903201544 | 102 | 119 | 4.0 | 8.0 | 0.00 | 0.00 | 0.00 | 31 | 1011.4 |
| 20260903200042 | 101 | 117 | 7.0 | 10.0 | 0.00 | 0.00 | 0.00 | 31 | 1011.5 |
| 20260903194546 | 101 | 96 | 3.0 | 11.0 | 0.00 | 0.00 | 0.00 | 32 | 1011.6 |
| 20260903193048 | 101 | 169 | 1.0 | 9.0 | 0.00 | 0.00 | 0.00 | 32 | 1012.0 |
| 20260903191542 | 100 | 218 | 5.0 | 8.0 | 0.00 | 0.00 | 0.00 | 31 | 1012.3 |
| 20260903190044 | 99 | 213 | 3.0 | 8.0 | 0.00 | 0.00 | 0.00 | 35 | 1012.5 |
| 20260903184541 | 99 | 309 | 4.0 | 7.0 | 0.00 | 0.00 | 0.00 | 34 | 1012.7 |
| 20260903183039 | 97 | 210 | 3.0 | 8.0 | 0.00 | 0.00 | 0.00 | 39 | 1013.0 |
| 20260903181543 | 96 | 234 | 5.0 | 9.0 | 0.00 | 0.00 | 0.00 | 40 | 1013.3 |
| 20260903180044 | 96 | 264 | 5.0 | 10.0 | 0.00 | 0.00 | 0.00 | 42 | 1013.5 |